sensor_id;sensor_type;location;lat;lon;timestamp;temperature;humidity
16871;DHT22;8552;48.120;-1.456;2023-08-30T00:00:46;15.50;99.90
16871;DHT22;8552;48.120;-1.456;2023-08-30T00:03:12;15.40;99.90
16871;DHT22;8552;48.120;-1.456;2023-08-30T00:05:41;15.40;99.90
16871;DHT22;8552;48.120;-1.456;2023-08-30T00:08:08;15.40;99.90
16871;DHT22;8552;48.120;-1.456;2023-08-30T00:10:34;15.40;99.90
16871;DHT22;8552;48.120;-1.456;2023-08-30T00:12:59;15.30;99.90
16871;DHT22;8552;48.120;-1.456;2023-08-30T00:15:25;15.30;99.90
16871;DHT22;8552;48.120;-1.456;2023-08-30T00:17:51;15.30;99.90
16871;DHT22;8552;48.120;-1.456;2023-08-30T00:20:18;15.30;99.90
16871;DHT22;8552;48.120;-1.456;2023-08-30T00:22:43;15.20;99.90
16871;DHT22;8552;48.120;-1.456;2023-08-30T00:25:09;15.30;99.90
16871;DHT22;8552;48.120;-1.456;2023-08-30T00:27:35;15.20;99.90
16871;DHT22;8552;48.120;-1.456;2023-08-30T00:30:00;15.20;99.90
16871;DHT22;8552;48.120;-1.456;2023-08-30T00:32:26;15.20;99.90
16871;DHT22;8552;48.120;-1.456;2023-08-30T00:34:52;15.20;99.90
16871;DHT22;8552;48.120;-1.456;2023-08-30T00:37:18;15.20;99.90
16871;DHT22;8552;48.120;-1.456;2023-08-30T00:39:43;15.20;99.90
16871;DHT22;8552;48.120;-1.456;2023-08-30T00:42:09;15.20;99.90
16871;DHT22;8552;48.120;-1.456;2023-08-30T00:44:35;15.20;99.90
16871;DHT22;8552;48.120;-1.456;2023-08-30T00:47:02;15.20;99.90
16871;DHT22;8552;48.120;-1.456;2023-08-30T00:49:31;15.20;99.90
16871;DHT22;8552;48.120;-1.456;2023-08-30T00:51:59;15.20;99.90
16871;DHT22;8552;48.120;-1.456;2023-08-30T00:54:26;15.20;99.90
16871;DHT22;8552;48.120;-1.456;2023-08-30T00:56:53;15.20;99.90
16871;DHT22;8552;48.120;-1.456;2023-08-30T00:59:19;15.20;99.90
16871;DHT22;8552;48.120;-1.456;2023-08-30T01:01:45;15.30;99.90
16871;DHT22;8552;48.120;-1.456;2023-08-30T01:04:11;15.30;99.90
16871;DHT22;8552;48.120;-1.456;2023-08-30T01:06:37;15.30;99.90
16871;DHT22;8552;48.120;-1.456;2023-08-30T01:09:03;15.30;99.90
16871;DHT22;8552;48.120;-1.456;2023-08-30T01:11:43;15.30;99.90
16871;DHT22;8552;48.120;-1.456;2023-08-30T01:14:25;15.30;99.90
16871;DHT22;8552;48.120;-1.456;2023-08-30T01:16:52;15.40;99.90
16871;DHT22;8552;48.120;-1.456;2023-08-30T01:22:19;15.40;99.90
16871;DHT22;8552;48.120;-1.456;2023-08-30T01:27:31;15.40;99.90
16871;DHT22;8552;48.120;-1.456;2023-08-30T01:30:02;15.40;99.90
16871;DHT22;8552;48.120;-1.456;2023-08-30T01:32:29;15.40;99.90
16871;DHT22;8552;48.120;-1.456;2023-08-30T01:34:55;15.40;99.90
16871;DHT22;8552;48.120;-1.456;2023-08-30T01:37:22;15.40;99.90
16871;DHT22;8552;48.120;-1.456;2023-08-30T01:39:50;15.40;99.90
16871;DHT22;8552;48.120;-1.456;2023-08-30T01:42:16;15.40;99.90
16871;DHT22;8552;48.120;-1.456;2023-08-30T01:44:48;15.40;99.90
16871;DHT22;8552;48.120;-1.456;2023-08-30T01:47:14;15.30;99.90
16871;DHT22;8552;48.120;-1.456;2023-08-30T01:49:42;15.40;99.90
16871;DHT22;8552;48.120;-1.456;2023-08-30T01:52:09;15.40;99.90
16871;DHT22;8552;48.120;-1.456;2023-08-30T01:54:36;15.40;99.90
16871;DHT22;8552;48.120;-1.456;2023-08-30T01:57:03;15.40;99.90
16871;DHT22;8552;48.120;-1.456;2023-08-30T01:59:29;15.40;99.90
16871;DHT22;8552;48.120;-1.456;2023-08-30T02:01:55;15.40;99.90
16871;DHT22;8552;48.120;-1.456;2023-08-30T02:04:22;15.40;99.90
16871;DHT22;8552;48.120;-1.456;2023-08-30T02:06:54;15.40;99.90
16871;DHT22;8552;48.120;-1.456;2023-08-30T02:09:29;15.40;99.90
16871;DHT22;8552;48.120;-1.456;2023-08-30T02:11:59;15.40;99.90
16871;DHT22;8552;48.120;-1.456;2023-08-30T02:14:27;15.40;99.90
16871;DHT22;8552;48.120;-1.456;2023-08-30T02:16:55;15.40;99.90
16871;DHT22;8552;48.120;-1.456;2023-08-30T02:19:21;15.40;99.90
16871;DHT22;8552;48.120;-1.456;2023-08-30T02:21:47;15.30;99.90
16871;DHT22;8552;48.120;-1.456;2023-08-30T02:24:14;15.30;99.90
16871;DHT22;8552;48.120;-1.456;2023-08-30T02:26:39;15.30;99.90
16871;DHT22;8552;48.120;-1.456;2023-08-30T02:29:05;15.20;99.90
16871;DHT22;8552;48.120;-1.456;2023-08-30T02:31:31;15.20;99.90
16871;DHT22;8552;48.120;-1.456;2023-08-30T02:33:57;15.30;99.90
16871;DHT22;8552;48.120;-1.456;2023-08-30T02:36:22;15.20;99.90
16871;DHT22;8552;48.120;-1.456;2023-08-30T02:38:49;15.30;99.90
16871;DHT22;8552;48.120;-1.456;2023-08-30T02:41:15;15.30;99.90
16871;DHT22;8552;48.120;-1.456;2023-08-30T02:43:40;15.30;99.90
16871;DHT22;8552;48.120;-1.456;2023-08-30T02:46:06;15.30;99.90
16871;DHT22;8552;48.120;-1.456;2023-08-30T02:48:32;15.20;99.90
16871;DHT22;8552;48.120;-1.456;2023-08-30T02:50:59;15.20;99.90
16871;DHT22;8552;48.120;-1.456;2023-08-30T02:53:24;15.30;99.90
16871;DHT22;8552;48.120;-1.456;2023-08-30T02:55:50;15.20;99.90
16871;DHT22;8552;48.120;-1.456;2023-08-30T02:58:16;15.30;99.90
16871;DHT22;8552;48.120;-1.456;2023-08-30T03:00:42;15.20;99.90
16871;DHT22;8552;48.120;-1.456;2023-08-30T03:03:07;15.30;99.90
16871;DHT22;8552;48.120;-1.456;2023-08-30T03:05:33;15.30;99.90
16871;DHT22;8552;48.120;-1.456;2023-08-30T03:07:59;15.30;99.90
16871;DHT22;8552;48.120;-1.456;2023-08-30T03:10:25;15.30;99.90
16871;DHT22;8552;48.120;-1.456;2023-08-30T03:12:50;15.30;99.90
16871;DHT22;8552;48.120;-1.456;2023-08-30T03:15:17;15.30;99.90
16871;DHT22;8552;48.120;-1.456;2023-08-30T03:17:42;15.20;99.90
16871;DHT22;8552;48.120;-1.456;2023-08-30T03:20:08;15.30;99.90
16871;DHT22;8552;48.120;-1.456;2023-08-30T03:22:34;15.20;99.90
16871;DHT22;8552;48.120;-1.456;2023-08-30T03:25:00;15.30;99.90
16871;DHT22;8552;48.120;-1.456;2023-08-30T03:27:29;15.30;99.90
16871;DHT22;8552;48.120;-1.456;2023-08-30T03:29:55;15.30;99.90
16871;DHT22;8552;48.120;-1.456;2023-08-30T03:32:21;15.30;99.90
16871;DHT22;8552;48.120;-1.456;2023-08-30T03:34:47;15.30;99.90
16871;DHT22;8552;48.120;-1.456;2023-08-30T03:37:17;15.30;99.90
16871;DHT22;8552;48.120;-1.456;2023-08-30T03:39:43;15.20;99.90
16871;DHT22;8552;48.120;-1.456;2023-08-30T03:42:09;15.20;99.90
16871;DHT22;8552;48.120;-1.456;2023-08-30T03:44:34;15.20;99.90
16871;DHT22;8552;48.120;-1.456;2023-08-30T03:47:00;15.20;99.90
16871;DHT22;8552;48.120;-1.456;2023-08-30T03:49:26;15.20;99.90
16871;DHT22;8552;48.120;-1.456;2023-08-30T03:51:52;15.20;99.90
16871;DHT22;8552;48.120;-1.456;2023-08-30T03:54:17;15.20;99.90
16871;DHT22;8552;48.120;-1.456;2023-08-30T03:56:44;15.20;99.90
16871;DHT22;8552;48.120;-1.456;2023-08-30T03:59:10;15.20;99.90
16871;DHT22;8552;48.120;-1.456;2023-08-30T04:01:36;15.20;99.90
16871;DHT22;8552;48.120;-1.456;2023-08-30T04:04:02;15.20;99.90
16871;DHT22;8552;48.120;-1.456;2023-08-30T04:06:28;15.20;99.90
16871;DHT22;8552;48.120;-1.456;2023-08-30T04:08:53;15.20;99.90
16871;DHT22;8552;48.120;-1.456;2023-08-30T04:11:19;15.20;99.90
16871;DHT22;8552;48.120;-1.456;2023-08-30T04:13:45;15.20;99.90
16871;DHT22;8552;48.120;-1.456;2023-08-30T04:16:11;15.10;99.90
16871;DHT22;8552;48.120;-1.456;2023-08-30T04:18:36;15.10;99.90
16871;DHT22;8552;48.120;-1.456;2023-08-30T04:21:02;15.20;99.90
16871;DHT22;8552;48.120;-1.456;2023-08-30T04:23:29;15.20;99.90
16871;DHT22;8552;48.120;-1.456;2023-08-30T04:25:55;15.10;99.90
16871;DHT22;8552;48.120;-1.456;2023-08-30T04:28:21;15.20;99.90
16871;DHT22;8552;48.120;-1.456;2023-08-30T04:30:47;15.20;99.90
16871;DHT22;8552;48.120;-1.456;2023-08-30T04:33:13;15.20;99.90
16871;DHT22;8552;48.120;-1.456;2023-08-30T04:35:39;15.20;99.90
16871;DHT22;8552;48.120;-1.456;2023-08-30T04:38:05;15.10;99.90
16871;DHT22;8552;48.120;-1.456;2023-08-30T04:40:31;15.10;99.90
16871;DHT22;8552;48.120;-1.456;2023-08-30T04:43:00;15.20;99.90
16871;DHT22;8552;48.120;-1.456;2023-08-30T04:45:28;15.10;99.90
16871;DHT22;8552;48.120;-1.456;2023-08-30T04:47:55;15.10;99.90
16871;DHT22;8552;48.120;-1.456;2023-08-30T04:50:21;15.10;99.90
16871;DHT22;8552;48.120;-1.456;2023-08-30T04:52:46;15.10;99.90
16871;DHT22;8552;48.120;-1.456;2023-08-30T04:55:12;15.10;99.90
16871;DHT22;8552;48.120;-1.456;2023-08-30T04:57:38;15.10;99.90
16871;DHT22;8552;48.120;-1.456;2023-08-30T05:00:04;15.10;99.90
16871;DHT22;8552;48.120;-1.456;2023-08-30T05:02:31;15.10;99.90
16871;DHT22;8552;48.120;-1.456;2023-08-30T05:04:56;15.10;99.90
16871;DHT22;8552;48.120;-1.456;2023-08-30T05:07:22;15.10;99.90
16871;DHT22;8552;48.120;-1.456;2023-08-30T05:09:48;15.10;99.90
16871;DHT22;8552;48.120;-1.456;2023-08-30T05:12:14;15.10;99.90
16871;DHT22;8552;48.120;-1.456;2023-08-30T05:14:39;15.10;99.90
16871;DHT22;8552;48.120;-1.456;2023-08-30T05:17:06;15.10;99.90
16871;DHT22;8552;48.120;-1.456;2023-08-30T05:19:32;15.10;99.90
16871;DHT22;8552;48.120;-1.456;2023-08-30T05:21:58;15.10;99.90
16871;DHT22;8552;48.120;-1.456;2023-08-30T05:24:24;15.10;99.90
16871;DHT22;8552;48.120;-1.456;2023-08-30T05:26:51;15.10;99.90
16871;DHT22;8552;48.120;-1.456;2023-08-30T05:29:17;15.10;99.90
16871;DHT22;8552;48.120;-1.456;2023-08-30T05:31:43;15.10;99.90
16871;DHT22;8552;48.120;-1.456;2023-08-30T05:34:10;15.10;99.90
16871;DHT22;8552;48.120;-1.456;2023-08-30T05:36:35;15.10;99.90
16871;DHT22;8552;48.120;-1.456;2023-08-30T05:39:01;15.10;99.90
16871;DHT22;8552;48.120;-1.456;2023-08-30T05:41:28;15.10;99.90
16871;DHT22;8552;48.120;-1.456;2023-08-30T05:43:54;15.10;99.90
16871;DHT22;8552;48.120;-1.456;2023-08-30T05:46:20;15.10;99.90
16871;DHT22;8552;48.120;-1.456;2023-08-30T05:48:46;15.10;99.90
16871;DHT22;8552;48.120;-1.456;2023-08-30T05:51:11;15.10;99.90
16871;DHT22;8552;48.120;-1.456;2023-08-30T05:53:37;15.10;99.90
16871;DHT22;8552;48.120;-1.456;2023-08-30T05:56:03;15.10;99.90
16871;DHT22;8552;48.120;-1.456;2023-08-30T05:58:29;15.10;99.90
16871;DHT22;8552;48.120;-1.456;2023-08-30T06:00:56;15.10;99.90
16871;DHT22;8552;48.120;-1.456;2023-08-30T06:03:22;15.10;99.90
16871;DHT22;8552;48.120;-1.456;2023-08-30T06:05:48;15.10;99.90
16871;DHT22;8552;48.120;-1.456;2023-08-30T06:08:14;15.10;99.90
16871;DHT22;8552;48.120;-1.456;2023-08-30T06:10:40;15.10;99.90
16871;DHT22;8552;48.120;-1.456;2023-08-30T06:13:06;15.10;99.90
16871;DHT22;8552;48.120;-1.456;2023-08-30T06:15:31;15.10;99.90
16871;DHT22;8552;48.120;-1.456;2023-08-30T06:17:58;15.10;99.90
16871;DHT22;8552;48.120;-1.456;2023-08-30T06:20:39;15.10;99.90
16871;DHT22;8552;48.120;-1.456;2023-08-30T06:23:08;15.10;99.90
16871;DHT22;8552;48.120;-1.456;2023-08-30T06:25:38;15.10;99.90
16871;DHT22;8552;48.120;-1.456;2023-08-30T06:28:09;15.20;99.90
16871;DHT22;8552;48.120;-1.456;2023-08-30T06:30:35;15.10;99.90
16871;DHT22;8552;48.120;-1.456;2023-08-30T06:33:10;15.20;99.90
16871;DHT22;8552;48.120;-1.456;2023-08-30T06:35:38;15.20;99.90
16871;DHT22;8552;48.120;-1.456;2023-08-30T06:38:05;15.20;99.90
16871;DHT22;8552;48.120;-1.456;2023-08-30T06:40:36;15.20;99.90
16871;DHT22;8552;48.120;-1.456;2023-08-30T06:43:01;15.20;99.90
16871;DHT22;8552;48.120;-1.456;2023-08-30T06:45:30;15.20;99.90
16871;DHT22;8552;48.120;-1.456;2023-08-30T06:47:58;15.30;99.90
16871;DHT22;8552;48.120;-1.456;2023-08-30T06:50:24;15.30;99.90
16871;DHT22;8552;48.120;-1.456;2023-08-30T06:52:49;15.30;99.90
16871;DHT22;8552;48.120;-1.456;2023-08-30T06:55:15;15.30;99.90
16871;DHT22;8552;48.120;-1.456;2023-08-30T06:57:41;15.30;99.90
16871;DHT22;8552;48.120;-1.456;2023-08-30T07:00:07;15.30;99.90
16871;DHT22;8552;48.120;-1.456;2023-08-30T07:02:37;15.30;99.90
16871;DHT22;8552;48.120;-1.456;2023-08-30T07:05:03;15.40;99.90
16871;DHT22;8552;48.120;-1.456;2023-08-30T07:07:31;15.40;99.90
16871;DHT22;8552;48.120;-1.456;2023-08-30T07:09:57;15.50;99.90
16871;DHT22;8552;48.120;-1.456;2023-08-30T07:12:25;15.50;99.90
16871;DHT22;8552;48.120;-1.456;2023-08-30T07:14:51;15.60;99.90
16871;DHT22;8552;48.120;-1.456;2023-08-30T07:17:17;15.60;99.90
16871;DHT22;8552;48.120;-1.456;2023-08-30T07:19:43;15.70;99.90
16871;DHT22;8552;48.120;-1.456;2023-08-30T07:22:08;15.70;99.90
16871;DHT22;8552;48.120;-1.456;2023-08-30T07:24:34;15.70;99.90
16871;DHT22;8552;48.120;-1.456;2023-08-30T07:27:00;15.80;99.90
16871;DHT22;8552;48.120;-1.456;2023-08-30T07:29:26;15.80;99.90
16871;DHT22;8552;48.120;-1.456;2023-08-30T07:31:51;15.80;99.90
16871;DHT22;8552;48.120;-1.456;2023-08-30T07:34:19;15.90;99.90
16871;DHT22;8552;48.120;-1.456;2023-08-30T07:36:44;16.00;99.90
16871;DHT22;8552;48.120;-1.456;2023-08-30T07:39:10;16.00;99.90
16871;DHT22;8552;48.120;-1.456;2023-08-30T07:41:36;16.00;99.90
16871;DHT22;8552;48.120;-1.456;2023-08-30T07:44:02;16.10;99.90
16871;DHT22;8552;48.120;-1.456;2023-08-30T07:46:28;16.20;99.90
16871;DHT22;8552;48.120;-1.456;2023-08-30T07:48:54;16.20;99.90
16871;DHT22;8552;48.120;-1.456;2023-08-30T07:51:22;16.30;99.90
16871;DHT22;8552;48.120;-1.456;2023-08-30T07:53:51;16.40;99.90
16871;DHT22;8552;48.120;-1.456;2023-08-30T07:56:19;16.50;99.90
16871;DHT22;8552;48.120;-1.456;2023-08-30T07:58:47;16.50;99.90
16871;DHT22;8552;48.120;-1.456;2023-08-30T08:01:18;16.60;99.90
16871;DHT22;8552;48.120;-1.456;2023-08-30T08:03:47;16.60;99.90
16871;DHT22;8552;48.120;-1.456;2023-08-30T08:06:17;16.70;99.90
16871;DHT22;8552;48.120;-1.456;2023-08-30T08:08:45;16.80;99.90
16871;DHT22;8552;48.120;-1.456;2023-08-30T08:11:14;16.90;99.90
16871;DHT22;8552;48.120;-1.456;2023-08-30T08:13:45;17.00;99.90
16871;DHT22;8552;48.120;-1.456;2023-08-30T08:16:13;17.00;99.90
16871;DHT22;8552;48.120;-1.456;2023-08-30T08:18:43;17.20;99.90
16871;DHT22;8552;48.120;-1.456;2023-08-30T08:21:16;17.20;99.90
16871;DHT22;8552;48.120;-1.456;2023-08-30T08:23:44;17.30;99.90
16871;DHT22;8552;48.120;-1.456;2023-08-30T08:26:16;17.40;99.90
16871;DHT22;8552;48.120;-1.456;2023-08-30T08:28:45;17.50;99.90
16871;DHT22;8552;48.120;-1.456;2023-08-30T08:31:12;17.50;99.90
16871;DHT22;8552;48.120;-1.456;2023-08-30T08:33:37;17.60;99.90
16871;DHT22;8552;48.120;-1.456;2023-08-30T08:36:03;17.80;99.90
16871;DHT22;8552;48.120;-1.456;2023-08-30T08:38:29;17.90;99.90
16871;DHT22;8552;48.120;-1.456;2023-08-30T08:41:03;17.80;99.90
16871;DHT22;8552;48.120;-1.456;2023-08-30T08:43:32;17.80;99.90
16871;DHT22;8552;48.120;-1.456;2023-08-30T08:46:04;17.90;99.90
16871;DHT22;8552;48.120;-1.456;2023-08-30T08:48:35;18.00;99.90
16871;DHT22;8552;48.120;-1.456;2023-08-30T08:51:03;18.00;99.90
16871;DHT22;8552;48.120;-1.456;2023-08-30T08:53:29;17.90;99.90
16871;DHT22;8552;48.120;-1.456;2023-08-30T08:55:58;18.00;99.90
16871;DHT22;8552;48.120;-1.456;2023-08-30T08:58:24;18.20;99.90
16871;DHT22;8552;48.120;-1.456;2023-08-30T09:00:51;18.40;99.90
16871;DHT22;8552;48.120;-1.456;2023-08-30T09:03:18;18.40;99.90
16871;DHT22;8552;48.120;-1.456;2023-08-30T09:05:51;18.20;99.90
16871;DHT22;8552;48.120;-1.456;2023-08-30T09:08:21;18.40;99.90
16871;DHT22;8552;48.120;-1.456;2023-08-30T09:10:48;18.60;99.90
16871;DHT22;8552;48.120;-1.456;2023-08-30T09:13:16;18.60;99.90
16871;DHT22;8552;48.120;-1.456;2023-08-30T09:15:41;18.50;99.90
16871;DHT22;8552;48.120;-1.456;2023-08-30T09:18:17;18.40;99.90
16871;DHT22;8552;48.120;-1.456;2023-08-30T09:20:44;18.90;99.90
16871;DHT22;8552;48.120;-1.456;2023-08-30T09:23:20;19.10;99.90
16871;DHT22;8552;48.120;-1.456;2023-08-30T09:25:46;19.20;99.90
16871;DHT22;8552;48.120;-1.456;2023-08-30T09:28:12;19.30;99.90
16871;DHT22;8552;48.120;-1.456;2023-08-30T09:30:39;19.30;99.90
16871;DHT22;8552;48.120;-1.456;2023-08-30T09:33:05;19.40;99.90
16871;DHT22;8552;48.120;-1.456;2023-08-30T09:35:34;19.50;99.90
16871;DHT22;8552;48.120;-1.456;2023-08-30T09:38:05;19.60;99.90
16871;DHT22;8552;48.120;-1.456;2023-08-30T09:40:32;19.70;99.90
16871;DHT22;8552;48.120;-1.456;2023-08-30T09:43:00;19.60;99.90
16871;DHT22;8552;48.120;-1.456;2023-08-30T09:45:26;19.70;99.90
16871;DHT22;8552;48.120;-1.456;2023-08-30T09:47:52;19.80;99.90
16871;DHT22;8552;48.120;-1.456;2023-08-30T09:50:20;20.00;99.90
16871;DHT22;8552;48.120;-1.456;2023-08-30T09:52:51;20.10;99.90
16871;DHT22;8552;48.120;-1.456;2023-08-30T09:55:18;20.00;99.90
16871;DHT22;8552;48.120;-1.456;2023-08-30T09:57:44;19.90;99.90
16871;DHT22;8552;48.120;-1.456;2023-08-30T10:00:11;20.00;99.90
16871;DHT22;8552;48.120;-1.456;2023-08-30T10:02:43;20.20;99.90
16871;DHT22;8552;48.120;-1.456;2023-08-30T10:05:12;20.40;99.90
16871;DHT22;8552;48.120;-1.456;2023-08-30T10:07:39;20.30;99.50
16871;DHT22;8552;48.120;-1.456;2023-08-30T10:10:05;20.30;99.90
16871;DHT22;8552;48.120;-1.456;2023-08-30T10:12:35;20.40;99.90
16871;DHT22;8552;48.120;-1.456;2023-08-30T10:15:02;20.60;99.90
16871;DHT22;8552;48.120;-1.456;2023-08-30T10:17:32;20.60;98.50
16871;DHT22;8552;48.120;-1.456;2023-08-30T10:19:59;20.60;98.20
16871;DHT22;8552;48.120;-1.456;2023-08-30T10:22:29;20.50;97.50
16871;DHT22;8552;48.120;-1.456;2023-08-30T10:25:10;20.70;98.60
16871;DHT22;8552;48.120;-1.456;2023-08-30T10:27:39;20.70;97.00
16871;DHT22;8552;48.120;-1.456;2023-08-30T10:30:07;20.80;97.40
16871;DHT22;8552;48.120;-1.456;2023-08-30T10:32:40;20.90;98.60
16871;DHT22;8552;48.120;-1.456;2023-08-30T10:35:06;21.10;96.30
16871;DHT22;8552;48.120;-1.456;2023-08-30T10:37:32;21.10;95.80
16871;DHT22;8552;48.120;-1.456;2023-08-30T10:40:01;21.20;96.60
16871;DHT22;8552;48.120;-1.456;2023-08-30T10:42:29;21.20;96.70
16871;DHT22;8552;48.120;-1.456;2023-08-30T10:47:32;21.70;97.70
16871;DHT22;8552;48.120;-1.456;2023-08-30T10:50:05;21.70;96.70
16871;DHT22;8552;48.120;-1.456;2023-08-30T10:52:32;21.90;95.20
16871;DHT22;8552;48.120;-1.456;2023-08-30T10:55:15;21.90;95.20
16871;DHT22;8552;48.120;-1.456;2023-08-30T10:57:45;22.00;94.30
16871;DHT22;8552;48.120;-1.456;2023-08-30T11:02:45;21.90;94.30
16871;DHT22;8552;48.120;-1.456;2023-08-30T11:05:15;21.90;94.90
16871;DHT22;8552;48.120;-1.456;2023-08-30T11:07:45;21.80;95.20
16871;DHT22;8552;48.120;-1.456;2023-08-30T11:10:12;21.70;93.30
16871;DHT22;8552;48.120;-1.456;2023-08-30T11:12:42;21.50;92.70
16871;DHT22;8552;48.120;-1.456;2023-08-30T11:15:10;21.50;93.10
16871;DHT22;8552;48.120;-1.456;2023-08-30T11:17:36;21.30;94.40
16871;DHT22;8552;48.120;-1.456;2023-08-30T11:20:11;21.70;96.60
16871;DHT22;8552;48.120;-1.456;2023-08-30T11:22:40;21.90;95.60
16871;DHT22;8552;48.120;-1.456;2023-08-30T11:25:08;22.20;95.00
16871;DHT22;8552;48.120;-1.456;2023-08-30T11:27:34;22.30;94.30
16871;DHT22;8552;48.120;-1.456;2023-08-30T11:30:01;22.30;92.50
16871;DHT22;8552;48.120;-1.456;2023-08-30T11:32:41;22.50;92.80
16871;DHT22;8552;48.120;-1.456;2023-08-30T11:35:10;22.50;91.70
16871;DHT22;8552;48.120;-1.456;2023-08-30T11:37:36;22.60;90.10
16871;DHT22;8552;48.120;-1.456;2023-08-30T11:40:05;22.80;90.20
16871;DHT22;8552;48.120;-1.456;2023-08-30T11:42:32;22.90;90.10
16871;DHT22;8552;48.120;-1.456;2023-08-30T11:44:58;22.70;89.60
16871;DHT22;8552;48.120;-1.456;2023-08-30T11:47:28;22.90;91.50
16871;DHT22;8552;48.120;-1.456;2023-08-30T11:49:56;23.00;91.40
16871;DHT22;8552;48.120;-1.456;2023-08-30T11:52:24;22.80;91.10
16871;DHT22;8552;48.120;-1.456;2023-08-30T11:54:51;22.70;91.30
16871;DHT22;8552;48.120;-1.456;2023-08-30T11:57:16;22.70;91.40
16871;DHT22;8552;48.120;-1.456;2023-08-30T11:59:42;22.60;90.00
16871;DHT22;8552;48.120;-1.456;2023-08-30T12:02:08;22.60;92.00
16871;DHT22;8552;48.120;-1.456;2023-08-30T12:04:45;22.90;91.70
16871;DHT22;8552;48.120;-1.456;2023-08-30T12:07:24;22.60;90.20
16871;DHT22;8552;48.120;-1.456;2023-08-30T12:09:51;22.60;91.60
16871;DHT22;8552;48.120;-1.456;2023-08-30T12:12:17;22.50;91.00
16871;DHT22;8552;48.120;-1.456;2023-08-30T12:14:43;22.40;90.40
16871;DHT22;8552;48.120;-1.456;2023-08-30T12:17:09;22.50;91.10
16871;DHT22;8552;48.120;-1.456;2023-08-30T12:19:37;22.30;90.30
16871;DHT22;8552;48.120;-1.456;2023-08-30T12:22:06;22.40;90.80
16871;DHT22;8552;48.120;-1.456;2023-08-30T12:24:49;22.40;90.40
16871;DHT22;8552;48.120;-1.456;2023-08-30T12:27:14;22.50;87.80
16871;DHT22;8552;48.120;-1.456;2023-08-30T12:29:40;22.60;88.20
16871;DHT22;8552;48.120;-1.456;2023-08-30T12:32:08;22.50;89.20
16871;DHT22;8552;48.120;-1.456;2023-08-30T12:34:35;22.60;90.40
16871;DHT22;8552;48.120;-1.456;2023-08-30T12:37:03;22.70;86.90
16871;DHT22;8552;48.120;-1.456;2023-08-30T12:39:29;22.70;90.00
16871;DHT22;8552;48.120;-1.456;2023-08-30T12:41:55;22.90;85.50
16871;DHT22;8552;48.120;-1.456;2023-08-30T12:44:24;22.90;89.90
16871;DHT22;8552;48.120;-1.456;2023-08-30T12:46:49;22.80;85.30
16871;DHT22;8552;48.120;-1.456;2023-08-30T12:49:15;22.70;85.50
16871;DHT22;8552;48.120;-1.456;2023-08-30T12:51:41;23.10;85.80
16871;DHT22;8552;48.120;-1.456;2023-08-30T12:54:06;23.30;85.60
16871;DHT22;8552;48.120;-1.456;2023-08-30T12:56:32;23.30;84.50
16871;DHT22;8552;48.120;-1.456;2023-08-30T12:58:58;23.30;83.00
16871;DHT22;8552;48.120;-1.456;2023-08-30T13:01:23;23.50;85.90
16871;DHT22;8552;48.120;-1.456;2023-08-30T13:03:50;23.50;84.70
16871;DHT22;8552;48.120;-1.456;2023-08-30T13:06:15;23.50;81.30
16871;DHT22;8552;48.120;-1.456;2023-08-30T13:08:41;23.30;81.80
16871;DHT22;8552;48.120;-1.456;2023-08-30T13:11:07;23.60;84.50
16871;DHT22;8552;48.120;-1.456;2023-08-30T13:13:32;23.70;85.60
16871;DHT22;8552;48.120;-1.456;2023-08-30T13:15:58;23.60;83.80
16871;DHT22;8552;48.120;-1.456;2023-08-30T13:18:24;23.40;84.70
16871;DHT22;8552;48.120;-1.456;2023-08-30T13:20:49;23.00;85.20
16871;DHT22;8552;48.120;-1.456;2023-08-30T13:23:15;22.70;85.20
16871;DHT22;8552;48.120;-1.456;2023-08-30T13:25:41;22.70;86.90
16871;DHT22;8552;48.120;-1.456;2023-08-30T13:28:07;22.60;87.80
16871;DHT22;8552;48.120;-1.456;2023-08-30T13:30:33;22.40;86.90
16871;DHT22;8552;48.120;-1.456;2023-08-30T13:32:59;22.60;89.80
16871;DHT22;8552;48.120;-1.456;2023-08-30T13:35:25;22.70;88.00
16871;DHT22;8552;48.120;-1.456;2023-08-30T13:37:50;22.90;89.30
16871;DHT22;8552;48.120;-1.456;2023-08-30T13:40:16;23.10;85.70
16871;DHT22;8552;48.120;-1.456;2023-08-30T13:42:42;23.20;86.50
16871;DHT22;8552;48.120;-1.456;2023-08-30T13:45:09;23.20;87.90
16871;DHT22;8552;48.120;-1.456;2023-08-30T13:47:38;23.30;86.80
16871;DHT22;8552;48.120;-1.456;2023-08-30T13:50:05;23.40;86.90
16871;DHT22;8552;48.120;-1.456;2023-08-30T13:52:32;23.30;88.40
16871;DHT22;8552;48.120;-1.456;2023-08-30T13:54:58;23.40;88.90
16871;DHT22;8552;48.120;-1.456;2023-08-30T13:57:24;23.20;85.20
16871;DHT22;8552;48.120;-1.456;2023-08-30T13:59:50;23.10;88.30
16871;DHT22;8552;48.120;-1.456;2023-08-30T14:02:15;23.00;85.60
16871;DHT22;8552;48.120;-1.456;2023-08-30T14:04:41;23.20;83.70
16871;DHT22;8552;48.120;-1.456;2023-08-30T14:07:07;23.10;81.70
16871;DHT22;8552;48.120;-1.456;2023-08-30T14:09:32;23.20;84.80
16871;DHT22;8552;48.120;-1.456;2023-08-30T14:11:58;23.50;83.70
16871;DHT22;8552;48.120;-1.456;2023-08-30T14:14:24;23.80;83.10
16871;DHT22;8552;48.120;-1.456;2023-08-30T14:16:49;24.00;85.70
16871;DHT22;8552;48.120;-1.456;2023-08-30T14:19:16;24.00;81.30
16871;DHT22;8552;48.120;-1.456;2023-08-30T14:21:41;23.70;80.80
16871;DHT22;8552;48.120;-1.456;2023-08-30T14:24:07;23.70;81.40
16871;DHT22;8552;48.120;-1.456;2023-08-30T14:26:33;23.30;83.00
16871;DHT22;8552;48.120;-1.456;2023-08-30T14:28:59;23.20;82.60
16871;DHT22;8552;48.120;-1.456;2023-08-30T14:31:24;23.20;84.90
16871;DHT22;8552;48.120;-1.456;2023-08-30T14:33:54;23.00;80.90
16871;DHT22;8552;48.120;-1.456;2023-08-30T14:36:21;22.80;84.40
16871;DHT22;8552;48.120;-1.456;2023-08-30T14:38:47;22.90;84.80
16871;DHT22;8552;48.120;-1.456;2023-08-30T14:41:12;23.00;83.80
16871;DHT22;8552;48.120;-1.456;2023-08-30T14:43:41;23.10;87.00
16871;DHT22;8552;48.120;-1.456;2023-08-30T14:46:07;23.30;85.30
16871;DHT22;8552;48.120;-1.456;2023-08-30T14:48:33;23.30;83.50
16871;DHT22;8552;48.120;-1.456;2023-08-30T14:50:59;23.30;85.60
16871;DHT22;8552;48.120;-1.456;2023-08-30T14:53:25;23.20;84.30
16871;DHT22;8552;48.120;-1.456;2023-08-30T14:55:51;23.20;84.80
16871;DHT22;8552;48.120;-1.456;2023-08-30T14:58:17;23.10;83.00
16871;DHT22;8552;48.120;-1.456;2023-08-30T15:00:44;23.10;86.00
16871;DHT22;8552;48.120;-1.456;2023-08-30T15:03:10;23.00;83.90
16871;DHT22;8552;48.120;-1.456;2023-08-30T15:05:35;23.30;87.30
16871;DHT22;8552;48.120;-1.456;2023-08-30T15:08:03;23.60;85.20
16871;DHT22;8552;48.120;-1.456;2023-08-30T15:10:28;23.90;83.20
16871;DHT22;8552;48.120;-1.456;2023-08-30T15:12:54;24.10;83.60
16871;DHT22;8552;48.120;-1.456;2023-08-30T15:15:20;24.30;84.10
16871;DHT22;8552;48.120;-1.456;2023-08-30T15:17:46;24.60;83.10
16871;DHT22;8552;48.120;-1.456;2023-08-30T15:20:12;24.30;76.20
16871;DHT22;8552;48.120;-1.456;2023-08-30T15:22:37;24.40;76.50
16871;DHT22;8552;48.120;-1.456;2023-08-30T15:25:03;24.60;78.60
16871;DHT22;8552;48.120;-1.456;2023-08-30T15:27:34;24.70;77.70
16871;DHT22;8552;48.120;-1.456;2023-08-30T15:30:00;24.90;76.60
16871;DHT22;8552;48.120;-1.456;2023-08-30T15:32:27;24.80;75.70
16871;DHT22;8552;48.120;-1.456;2023-08-30T15:34:54;24.40;79.20
16871;DHT22;8552;48.120;-1.456;2023-08-30T15:37:20;24.50;75.80
16871;DHT22;8552;48.120;-1.456;2023-08-30T15:39:46;24.90;76.40